Akwesasne, New York
Current Conditions -  °F | °C
As of 9:53 AM on Friday 24 Oct 2014 (Local Time) from KMSS Reporting Station
Overcast Overcast  
Wind Chill: 49°   Ceiling: 3900
Heat Index: 49°   Visibility: NA
Dew Point: 44°   Wind: 0mph
Humidity: 83%   Direction: NA
Pressure: 29.94"   Gusts: NA
Location:  44.9835°N, 74.6107°W
Report Text: KMSS 241353Z AUTO 00000KT OVC039 09/07 A2994 RMK AO2 SLP140 T00940067 $
Loading
Personal Weather Stations






























Interactive Weather Map
Tropical Storm Tracking
New forecast layout! Learn more

10-Day Weather Forecast

Advertisements
Track Severe Weather on mobile